sensor_id;sensor_type;location;lat;lon;timestamp;temperature;humidity
72638;DHT22;60681;50.308;8.972;2023-05-29T10:52:19;26.70;34.50
72638;DHT22;60681;50.308;8.972;2023-05-29T10:54:52;26.20;33.10
72638;DHT22;60681;50.308;8.972;2023-05-29T10:57:20;26.50;35.20
72638;DHT22;60681;50.308;8.972;2023-05-29T10:59:46;26.80;34.90
72638;DHT22;60681;50.308;8.972;2023-05-29T11:02:17;26.50;34.90
72638;DHT22;60681;50.308;8.972;2023-05-29T11:04:43;26.50;34.20
72638;DHT22;60681;50.308;8.972;2023-05-29T11:07:35;26.20;34.20
72638;DHT22;60681;50.308;8.972;2023-05-29T11:10:13;26.40;33.80
72638;DHT22;60681;50.308;8.972;2023-05-29T11:12:57;26.30;34.30
72638;DHT22;60681;50.308;8.972;2023-05-29T11:15:25;26.50;34.80
72638;DHT22;60681;50.308;8.972;2023-05-29T11:17:51;26.30;33.90
72638;DHT22;60681;50.308;8.972;2023-05-29T11:20:35;26.00;33.90
72638;DHT22;60681;50.308;8.972;2023-05-29T11:23:06;25.80;33.80
72638;DHT22;60681;50.308;8.972;2023-05-29T11:25:37;25.80;34.40
72638;DHT22;60681;50.308;8.972;2023-05-29T11:28:04;26.00;36.60
72638;DHT22;60681;50.308;8.972;2023-05-29T11:30:41;26.20;36.80
72638;DHT22;60681;50.308;8.972;2023-05-29T11:33:07;26.20;35.30
72638;DHT22;60681;50.308;8.972;2023-05-29T11:35:34;26.10;34.90
72638;DHT22;60681;50.308;8.972;2023-05-29T11:38:02;26.00;36.80
72638;DHT22;60681;50.308;8.972;2023-05-29T11:40:27;26.00;37.00
72638;DHT22;60681;50.308;8.972;2023-05-29T11:42:53;26.00;35.80
72638;DHT22;60681;50.308;8.972;2023-05-29T11:45:20;25.80;36.00
72638;DHT22;60681;50.308;8.972;2023-05-29T11:47:59;25.70;36.30
72638;DHT22;60681;50.308;8.972;2023-05-29T11:50:27;25.90;37.60
72638;DHT22;60681;50.308;8.972;2023-05-29T11:52:53;25.80;36.00
72638;DHT22;60681;50.308;8.972;2023-05-29T11:55:20;25.80;37.40
72638;DHT22;60681;50.308;8.972;2023-05-29T11:57:46;25.80;37.60
72638;DHT22;60681;50.308;8.972;2023-05-29T12:00:14;25.80;37.50
72638;DHT22;60681;50.308;8.972;2023-05-29T12:02:39;25.80;36.20
72638;DHT22;60681;50.308;8.972;2023-05-29T12:05:07;25.80;36.10
72638;DHT22;60681;50.308;8.972;2023-05-29T12:07:33;25.80;37.40
72638;DHT22;60681;50.308;8.972;2023-05-29T12:10:16;25.70;37.20
72638;DHT22;60681;50.308;8.972;2023-05-29T12:12:42;25.80;38.80
72638;DHT22;60681;50.308;8.972;2023-05-29T12:15:09;25.70;35.70
72638;DHT22;60681;50.308;8.972;2023-05-29T12:17:35;25.80;38.50
72638;DHT22;60681;50.308;8.972;2023-05-29T12:20:03;25.60;36.70
72638;DHT22;60681;50.308;8.972;2023-05-29T12:22:36;25.80;36.10
72638;DHT22;60681;50.308;8.972;2023-05-29T12:25:13;25.70;35.90
72638;DHT22;60681;50.308;8.972;2023-05-29T12:27:44;25.60;37.10
72638;DHT22;60681;50.308;8.972;2023-05-29T12:32:43;25.80;36.80
72638;DHT22;60681;50.308;8.972;2023-05-29T12:35:24;25.80;36.90
72638;DHT22;60681;50.308;8.972;2023-05-29T12:40:23;25.60;36.40
72638;DHT22;60681;50.308;8.972;2023-05-29T12:42:52;25.80;38.10
72638;DHT22;60681;50.308;8.972;2023-05-29T12:45:18;25.80;36.80
72638;DHT22;60681;50.308;8.972;2023-05-29T12:50:20;25.80;38.10
72638;DHT22;60681;50.308;8.972;2023-05-29T12:53:15;25.80;37.90
72638;DHT22;60681;50.308;8.972;2023-05-29T12:55:43;25.70;36.20
72638;DHT22;60681;50.308;8.972;2023-05-29T12:58:09;25.80;37.60
72638;DHT22;60681;50.308;8.972;2023-05-29T13:00:37;25.90;36.80
72638;DHT22;60681;50.308;8.972;2023-05-29T13:03:04;25.90;35.80
72638;DHT22;60681;50.308;8.972;2023-05-29T13:05:30;25.90;36.40
72638;DHT22;60681;50.308;8.972;2023-05-29T13:07:57;25.90;35.50
72638;DHT22;60681;50.308;8.972;2023-05-29T13:10:23;26.10;36.50
72638;DHT22;60681;50.308;8.972;2023-05-29T13:12:49;26.10;38.90
72638;DHT22;60681;50.308;8.972;2023-05-29T13:15:19;26.10;36.30
72638;DHT22;60681;50.308;8.972;2023-05-29T13:17:45;26.30;36.80
72638;DHT22;60681;50.308;8.972;2023-05-29T13:20:11;26.30;37.50
72638;DHT22;60681;50.308;8.972;2023-05-29T13:22:42;26.20;35.50
72638;DHT22;60681;50.308;8.972;2023-05-29T13:25:09;26.40;36.20
72638;DHT22;60681;50.308;8.972;2023-05-29T13:27:37;26.40;36.70
72638;DHT22;60681;50.308;8.972;2023-05-29T13:30:04;26.30;35.90
72638;DHT22;60681;50.308;8.972;2023-05-29T13:32:30;26.10;35.70
72638;DHT22;60681;50.308;8.972;2023-05-29T13:34:55;26.10;35.90
72638;DHT22;60681;50.308;8.972;2023-05-29T13:37:21;26.20;35.10
72638;DHT22;60681;50.308;8.972;2023-05-29T13:39:47;26.10;37.10
72638;DHT22;60681;50.308;8.972;2023-05-29T13:42:12;26.30;37.20
72638;DHT22;60681;50.308;8.972;2023-05-29T13:44:38;26.10;36.40
72638;DHT22;60681;50.308;8.972;2023-05-29T13:47:05;26.10;36.80
72638;DHT22;60681;50.308;8.972;2023-05-29T13:49:31;26.10;38.80
72638;DHT22;60681;50.308;8.972;2023-05-29T13:51:57;26.10;38.20
72638;DHT22;60681;50.308;8.972;2023-05-29T13:54:22;26.20;38.10
72638;DHT22;60681;50.308;8.972;2023-05-29T13:56:48;26.10;38.20
72638;DHT22;60681;50.308;8.972;2023-05-29T13:59:14;26.10;38.70
72638;DHT22;60681;50.308;8.972;2023-05-29T14:04:06;25.70;38.00
72638;DHT22;60681;50.308;8.972;2023-05-29T14:06:33;25.60;39.40
72638;DHT22;60681;50.308;8.972;2023-05-29T14:08:59;25.70;39.70
72638;DHT22;60681;50.308;8.972;2023-05-29T14:11:25;26.00;39.90
72638;DHT22;60681;50.308;8.972;2023-05-29T14:16:18;26.10;37.70
72638;DHT22;60681;50.308;8.972;2023-05-29T14:18:43;26.00;38.10
72638;DHT22;60681;50.308;8.972;2023-05-29T14:21:09;26.00;39.60
72638;DHT22;60681;50.308;8.972;2023-05-29T14:23:36;26.10;40.30
